Current Conditions - Area Ports

 

CYWH - Victoria Harbour, British Columbia, Canada
Distance from station: WSW 10km
Updated: 06/19/2018 9:00pm
NOT Current
Partly cloudy
Partly cloudy
 Wind from varies
Wind: varies 4 km/h
Temperature: 18°C
Dew Point: 11°C
Humidity: 64%
Barometer: 1014.6 hPa
Clouds: Partly cloudy
Visibility: 24 km
Cloud details: Few Clouds 4572 m
Partly cloudy 7620 m
2018/06/20 04:00 CYWH 200400Z VRB02KT 15SM FEW150 SCT250 18/11 A2996 RMK AC1CI2 LAST STFD OBS/NEXT 201300 UTC SLP146 DENSITY ALT 400FT
KFHR - Friday Harbor, Washington, USA
Distance from station: ENE 19km
Updated: 06/20/2018 5:53am
Clear
Clear
 Wind from WSW
Wind: WSW 6 km/h
Temperature: 11°C
Dew Point: 10°C
Humidity: 94%
Barometer: 1015.2 hPa
Clouds: Clear
Visibility: 16 km
2018/06/20 12:53 KFHR 201253Z AUTO 25003KT 10SM CLR 11/10 A2998 RMK AO2 SLP153 T01110100 TSNO
 
KORS - Eastsound/Orcas, Washington, USA
Distance from station: NE 38km
Updated: 06/20/2018 5:55am
Clear
Clear
 Wind from calm
Wind: Calm
Temperature: 13°C
Dew Point: 12°C
Humidity: 94%
Barometer: 1014.9 hPa
Clouds: Clear
Visibility: 16 km
2018/06/20 12:55 KORS 201255Z AUTO 00000KT 10SM CLR 13/12 A2997 RMK AO2
KNUW - Whidbey Is. Nas, Washington, USA
Distance from station: ESE 47km
Updated: 06/20/2018 4:56am
Mist, Mostly cloudy
Mist, Mostly cloudy
 Wind from WSW
Wind: WSW 7 km/h
Temperature: 12°C
Dew Point: 11°C
Humidity: 94%
Barometer: 1016.6 hPa
Summary: Mist
Clouds: Mostly cloudy
Visibility: 10 km
Cloud details: Few Clouds 122 m
Few Clouds 3048 m
Mostly cloudy 4267 m
Mostly cloudy 7620 m
2018/06/20 11:56 KNUW 201156Z 25004KT 6SM BR FEW004 FEW100 BKN140 BKN250 12/11 A3002 RMK SLP164 T01220106 10144 20117 58008
 
CWEZ - Saturna Isl (map, British Columbia, Canada
Distance from station: NNE 40km
Updated: 06/20/2018 5:00am

 Wind from SW
Wind: SW 13 km/h
Temperature: 13°C
Dew Point: 11°C
Humidity: 88%
2018/06/20 12:00 CWEZ 201200Z AUTO 23007KT 13/11 RMK AO1 SLP144 T01270107 58003
CYCD - Nanaimo Airport, British Columbia, Canada
Distance from station: NW 80km
Updated: 06/19/2018 9:00pm
NOT Current
Few Clouds
Few Clouds
 Wind from S
Wind: S 4 km/h
Temperature: 22°C
Dew Point: 14°C
Humidity: 61%
Barometer: 1014.6 hPa
Clouds: Few Clouds
Visibility: 48 km
Cloud details: Few Clouds 7620 m
2018/06/20 04:00 CYCD 200400Z 17002KT 30SM FEW250 22/14 A2996 RMK CI1 LAST STFD OBS/NEXT 201300Z SLP145 DENSITY ALT 900FT
 
CWVF - Sand Heads (ls), British Columbia, Canada
Distance from station: N 72km
Updated: 05/20/2018 8:15am
NOT Current

 Wind from SE
Wind: SE 20 km/h
Temperature: 12°C
2018/05/20 15:15 CWVF 201515Z AUTO 13011KT 12/ RMK AO1 T0124
CWQK - Race Rocks Autob, British Columbia, Canada
Distance from station: SW 26km
Updated: 06/20/2018 5:00am

 Wind from W
Wind: W 35 km/h
Temperature: 10°C
Wind Chill: 6°C
Dew Point: 10°C
Humidity: 100%
2018/06/20 12:00 CWQK 201200Z AUTO 26019KT 10/10 RMK AO1 PK WND 26021/1113 SLP149 T00980098 56008
 
CWSP - Sheringham Autob, British Columbia, Canada
Distance from station: W 49km
Updated: 06/20/2018 5:00am

 Wind from WNW
Wind: WNW 9 km/h
2018/06/20 12:00 CWSP 201200Z AUTO 30005KT RMK AO1 58002